Terminal Aerodrome Forecast
Issued by NWS Cleveland, OH

Home | Current Version | Previous Version | Graphics & Text | Print | Product List | Glossary On
Versions: 1 2 3 4 5 6 7 8 9 10 11 12 13 14 15 16
082
FTUS41 KCLE 200558 CCA
TAFTOL
TAF COR
KTOL 200558Z 2006/2106 09008KT P6SM OVC008
     FM200800 12008KT 5SM BR OVC015
     FM201200 16010KT P6SM VCSH SCT025 OVC050
     FM201800 22018G28KT P6SM SCT035 BKN050
     FM202100 25015G25KT 5SM -SHRA OVC035
      TEMPO 2021/2024 27020G40KT 2SM TSRA OVC020CB
     FM210100 27012KT P6SM BKN080=

USA.gov is the U.S. government's official web portal to all federal, state and local government web resources and services.